Time;durP1;ratioP1;P1;durP2;ratioP2;P2;SDS_P1;SDS_P2;PMS_P1;PMS_P2;Temp;Humidity;BMP_temperature;BMP_pressure;BME280_temperature;BME280_humidity;BME280_pressure;Samples;Min_cycle;Max_cycle;Signal;HPM_P1;HPM_P2
2021/05/02 00:00:17;;;;;;;63.60;42.97;;;7.60;99.90;;;;;;5011809;28;20473;-73
2021/05/02 00:02:43;;;;;;;71.10;44.73;;;7.70;99.90;;;;;;5011559;28;20600;-74
2021/05/02 00:05:11;;;;;;;66.80;43.80;;;7.70;99.90;;;;;;5011011;28;20590;-74
2021/05/02 00:07:38;;;;;;;61.33;42.93;;;7.70;99.90;;;;;;5011303;28;20893;-73
2021/05/02 00:10:06;;;;;;;65.90;44.03;;;7.70;99.90;;;;;;5011259;28;21098;-75
2021/05/02 00:12:33;;;;;;;62.87;41.30;;;7.60;99.90;;;;;;5011181;28;20456;-75
2021/05/02 00:15:00;;;;;;;60.90;43.53;;;7.60;99.90;;;;;;5010906;28;20462;-75
2021/05/02 00:17:27;;;;;;;58.83;41.50;;;7.60;99.90;;;;;;5010961;28;20929;-75
2021/05/02 00:19:54;;;;;;;61.23;41.67;;;7.60;99.90;;;;;;5010855;28;20452;-76
2021/05/02 00:22:21;;;;;;;72.30;44.93;;;7.60;99.90;;;;;;5010794;28;20951;-74
2021/05/02 00:24:48;;;;;;;59.40;42.53;;;7.60;99.90;;;;;;5010847;28;20862;-76
2021/05/02 00:27:15;;;;;;;70.17;43.43;;;7.50;99.90;;;;;;5010924;28;20465;-75
2021/05/02 00:29:43;;;;;;;72.20;45.83;;;7.50;99.90;;;;;;5011005;28;20477;-74
2021/05/02 00:32:10;;;;;;;59.13;39.93;;;7.50;99.90;;;;;;5011103;28;20464;-75
2021/05/02 00:34:38;;;;;;;64.33;43.50;;;7.50;99.90;;;;;;5010635;28;20474;-75
2021/05/02 00:37:06;;;;;;;54.30;39.17;;;7.40;99.90;;;;;;5010691;28;20461;-75
2021/05/02 00:39:34;;;;;;;58.30;39.27;;;7.40;99.90;;;;;;5010108;28;20449;-77
2021/05/02 00:42:05;;;;;;;51.50;37.20;;;7.40;99.90;;;;;;5010780;28;20541;-75
2021/05/02 00:44:40;;;;;;;49.73;36.10;;;7.40;99.90;;;;;;5010244;28;20497;-74
2021/05/02 00:47:12;;;;;;;49.23;37.00;;;7.30;99.90;;;;;;5010743;28;20524;-75
2021/05/02 00:49:43;;;;;;;51.67;37.67;;;7.30;99.90;;;;;;5008430;28;20448;-74
2021/05/02 00:52:14;;;;;;;56.47;37.33;;;7.30;99.90;;;;;;5010540;28;20446;-74
2021/05/02 00:54:46;;;;;;;54.33;38.23;;;7.30;99.90;;;;;;5010167;28;20461;-76
2021/05/02 00:57:16;;;;;;;57.17;38.70;;;7.30;99.90;;;;;;5010435;28;20980;-74
2021/05/02 00:59:48;;;;;;;50.57;37.80;;;7.20;99.90;;;;;;5010539;28;20445;-75
2021/05/02 01:02:17;;;;;;;47.00;36.87;;;7.20;99.90;;;;;;5010590;28;20549;-75
2021/05/02 01:04:46;;;;;;;51.40;38.83;;;7.20;99.90;;;;;;5009971;28;20497;-73
2021/05/02 01:07:17;;;;;;;57.17;39.17;;;7.20;99.90;;;;;;5010378;28;20456;-76
2021/05/02 01:09:44;;;;;;;60.33;42.10;;;7.20;99.90;;;;;;5010228;28;20888;-73
2021/05/02 01:12:12;;;;;;;54.67;41.50;;;7.10;99.90;;;;;;5010187;28;20485;-76
2021/05/02 01:14:44;;;;;;;58.77;44.43;;;7.10;99.90;;;;;;5009965;28;20480;-76
2021/05/02 01:17:13;;;;;;;61.60;44.80;;;7.10;99.90;;;;;;5010345;28;20453;-75
2021/05/02 01:19:40;;;;;;;67.07;45.57;;;7.10;99.90;;;;;;5010271;28;20454;-76
2021/05/02 01:22:13;;;;;;;61.07;48.03;;;7.10;99.90;;;;;;5009933;28;20544;-75
2021/05/02 01:24:44;;;;;;;64.60;44.60;;;7.10;99.90;;;;;;5010012;28;20580;-75
2021/05/02 01:27:20;;;;;;;66.23;45.43;;;7.10;99.90;;;;;;5010253;28;20970;-75
2021/05/02 01:29:46;;;;;;;67.17;43.93;;;7.10;99.90;;;;;;5010418;28;20536;-73
2021/05/02 01:32:13;;;;;;;59.83;44.07;;;7.00;99.90;;;;;;5010356;28;20454;-75
2021/05/02 01:34:40;;;;;;;60.43;42.93;;;7.00;99.90;;;;;;5010046;28;20495;-75
2021/05/02 01:37:07;;;;;;;60.80;43.87;;;7.00;99.90;;;;;;5010300;28;20500;-74
2021/05/02 01:39:35;;;;;;;64.40;43.07;;;7.00;99.90;;;;;;5010326;28;20514;-73
2021/05/02 01:42:02;;;;;;;64.13;43.60;;;7.00;99.90;;;;;;5007785;28;20457;-72
2021/05/02 01:44:28;;;;;;;62.90;42.83;;;7.00;99.90;;;;;;5011032;28;20501;-72
2021/05/02 01:46:58;;;;;;;56.33;40.40;;;7.00;99.90;;;;;;5003409;28;20449;-73
2021/05/02 01:49:26;;;;;;;52.40;39.83;;;7.00;99.90;;;;;;5006676;28;20481;-73
2021/05/02 01:51:52;;;;;;;50.33;37.67;;;6.90;99.90;;;;;;5013392;28;20507;-74
2021/05/02 01:54:19;;;;;;;47.60;36.37;;;6.90;99.90;;;;;;5013082;28;20556;-74
2021/05/02 01:56:46;;;;;;;51.00;39.00;;;6.90;99.90;;;;;;5007145;28;20485;-72
2021/05/02 01:59:16;;;;;;;49.13;38.23;;;6.90;99.90;;;;;;5007018;28;20454;-74
2021/05/02 02:01:43;;;;;;;56.00;42.37;;;6.90;99.90;;;;;;5007290;28;20453;-74
2021/05/02 02:04:09;;;;;;;51.37;36.73;;;6.90;99.90;;;;;;5012779;28;20476;-74
2021/05/02 02:06:36;;;;;;;53.70;40.20;;;6.90;99.90;;;;;;5006414;28;20456;-73
2021/05/02 02:09:05;;;;;;;59.63;41.40;;;6.80;99.90;;;;;;5006835;28;20453;-74
2021/05/02 02:11:32;;;;;;;54.70;40.07;;;6.90;99.90;;;;;;5006665;28;20503;-73
2021/05/02 02:13:59;;;;;;;56.00;40.03;;;6.80;99.90;;;;;;5006495;28;20474;-74
2021/05/02 02:16:28;;;;;;;53.00;40.30;;;6.80;99.90;;;;;;5006542;28;20444;-73
2021/05/02 02:18:55;;;;;;;49.67;40.50;;;6.90;99.90;;;;;;5012375;28;20442;-74
2021/05/02 02:21:24;;;;;;;57.33;41.50;;;6.90;99.90;;;;;;5006304;28;20549;-75
2021/05/02 02:23:55;;;;;;;58.87;41.97;;;6.90;99.90;;;;;;5012216;28;20484;-73
2021/05/02 02:26:27;;;;;;;57.47;42.03;;;6.90;99.90;;;;;;5012252;28;20491;-74
2021/05/02 02:28:54;;;;;;;58.83;40.10;;;6.80;99.90;;;;;;5012494;28;20450;-75
2021/05/02 02:31:22;;;;;;;60.90;42.67;;;6.80;99.90;;;;;;5012344;28;20450;-75
2021/05/02 02:33:50;;;;;;;64.47;43.57;;;6.80;99.90;;;;;;5012226;28;20561;-73
2021/05/02 02:36:17;;;;;;;58.87;42.60;;;6.80;99.90;;;;;;5012295;28;20532;-74
2021/05/02 02:38:45;;;;;;;60.57;42.67;;;6.80;99.90;;;;;;5012378;28;20525;-74
2021/05/02 02:41:15;;;;;;;64.50;44.47;;;6.80;99.90;;;;;;5012207;28;20438;-74
2021/05/02 02:43:48;;;;;;;67.33;45.33;;;6.80;99.90;;;;;;5012181;28;20461;-74
2021/05/02 02:46:17;;;;;;;66.90;42.87;;;6.80;99.90;;;;;;5011709;28;20481;-75
2021/05/02 02:48:46;;;;;;;63.43;45.40;;;6.80;99.90;;;;;;5011952;28;20450;-75
2021/05/02 02:51:16;;;;;;;70.67;48.03;;;6.80;99.90;;;;;;5012469;28;20464;-75
2021/05/02 02:53:44;;;;;;;66.80;44.67;;;6.80;99.90;;;;;;5011986;28;20472;-74
2021/05/02 02:56:14;;;;;;;61.00;44.63;;;6.80;99.90;;;;;;5011719;28;20449;-74
2021/05/02 02:58:44;;;;;;;65.73;46.90;;;6.80;99.90;;;;;;5011894;28;20446;-74
2021/05/02 03:01:12;;;;;;;68.87;46.50;;;6.80;99.90;;;;;;5011174;28;20533;-74
2021/05/02 03:03:42;;;;;;;65.17;44.80;;;6.80;99.90;;;;;;5011876;28;20465;-74
2021/05/02 03:06:09;;;;;;;63.23;44.27;;;6.80;99.90;;;;;;5011579;28;20486;-74
2021/05/02 03:08:38;;;;;;;69.03;48.23;;;6.80;99.90;;;;;;5011816;28;20461;-73
2021/05/02 03:11:06;;;;;;;62.80;45.03;;;6.80;99.90;;;;;;5011743;28;21052;-73
2021/05/02 03:13:33;;;;;;;61.70;44.67;;;6.80;99.90;;;;;;5011730;28;20449;-74
2021/05/02 03:16:01;;;;;;;60.13;44.50;;;6.80;99.90;;;;;;5011784;28;20440;-73
2021/05/02 03:18:30;;;;;;;54.27;41.00;;;6.80;99.90;;;;;;5011368;28;20533;-74
2021/05/02 03:21:01;;;;;;;60.37;44.07;;;6.80;99.90;;;;;;5012016;28;20450;-74
2021/05/02 03:23:31;;;;;;;68.43;47.37;;;6.80;99.90;;;;;;5011781;28;20454;-74
2021/05/02 03:26:02;;;;;;;68.80;46.30;;;6.80;99.90;;;;;;5011249;28;20576;-74
2021/05/02 03:28:33;;;;;;;57.47;44.93;;;6.80;99.90;;;;;;5011565;28;20450;-74
2021/05/02 03:31:01;;;;;;;63.47;45.10;;;6.90;99.90;;;;;;5011637;28;20458;-74
2021/05/02 03:33:33;;;;;;;60.20;46.30;;;6.80;99.90;;;;;;5004770;28;20442;-74
2021/05/02 03:36:02;;;;;;;61.17;44.03;;;6.90;99.90;;;;;;5005547;28;20449;-75
2021/05/02 03:38:34;;;;;;;59.63;44.20;;;6.80;99.90;;;;;;5011353;28;20437;-76
2021/05/02 03:41:02;;;;;;;54.10;42.47;;;6.80;99.90;;;;;;5011829;28;20887;-75
2021/05/02 03:43:28;;;;;;;59.73;44.57;;;6.90;99.90;;;;;;5011466;28;20460;-75
2021/05/02 03:45:55;;;;;;;69.43;47.67;;;6.90;99.90;;;;;;5011047;28;20490;-75
2021/05/02 03:48:21;;;;;;;59.17;44.83;;;6.90;99.90;;;;;;5011071;28;20520;-75
2021/05/02 03:50:48;;;;;;;63.33;46.83;;;6.90;99.90;;;;;;5010883;28;20611;-75
2021/05/02 03:53:14;;;;;;;61.67;45.63;;;6.90;99.90;;;;;;5011034;28;20541;-75
2021/05/02 03:55:41;;;;;;;65.57;46.30;;;6.80;99.90;;;;;;5010505;28;21181;-75
2021/05/02 03:58:13;;;;;;;57.13;43.40;;;6.90;99.90;;;;;;5011003;28;20528;-75
2021/05/02 04:00:39;;;;;;;61.43;43.43;;;6.90;99.90;;;;;;5011047;28;20448;-75
2021/05/02 04:03:06;;;;;;;59.27;44.37;;;6.90;99.90;;;;;;5011286;28;20472;-74
2021/05/02 04:05:32;;;;;;;55.37;44.27;;;6.90;99.90;;;;;;5011740;28;20490;-75
2021/05/02 04:07:59;;;;;;;57.57;42.70;;;6.90;99.90;;;;;;5011061;28;20460;-76
2021/05/02 04:10:25;;;;;;;60.20;45.47;;;6.80;99.90;;;;;;5010873;28;20459;-75
2021/05/02 04:12:52;;;;;;;61.17;44.43;;;6.80;99.90;;;;;;5010430;28;20458;-75
2021/05/02 04:15:19;;;;;;;63.07;45.27;;;6.90;99.90;;;;;;5010276;28;20553;-75
2021/05/02 04:17:46;;;;;;;70.23;45.87;;;6.80;99.90;;;;;;5010355;28;20450;-75
2021/05/02 04:20:13;;;;;;;60.87;45.67;;;6.80;99.90;;;;;;5010794;28;20482;-75
2021/05/02 04:22:40;;;;;;;63.70;45.73;;;6.80;99.90;;;;;;5010576;28;20458;-75
2021/05/02 04:25:07;;;;;;;61.00;46.87;;;6.90;99.90;;;;;;5003990;28;20923;-75
2021/05/02 04:27:33;;;;;;;59.40;44.90;;;6.90;99.90;;;;;;5004346;28;20453;-75
2021/05/02 04:30:00;;;;;;;58.63;43.70;;;6.90;99.90;;;;;;5003857;28;20540;-75
2021/05/02 04:32:27;;;;;;;59.47;44.00;;;6.90;99.90;;;;;;5010318;28;20592;-75
2021/05/02 04:34:53;;;;;;;58.20;46.03;;;6.90;99.90;;;;;;5010186;28;20936;-75
2021/05/02 04:37:20;;;;;;;56.70;43.37;;;6.90;99.90;;;;;;5010156;28;21102;-75
2021/05/02 04:39:46;;;;;;;55.00;43.77;;;6.90;99.90;;;;;;5010192;28;20445;-75
2021/05/02 04:42:13;;;;;;;55.07;43.87;;;6.90;99.90;;;;;;5010238;28;20503;-75
2021/05/02 04:44:39;;;;;;;57.27;45.30;;;6.90;99.90;;;;;;5009925;28;20473;-74
2021/05/02 04:47:06;;;;;;;64.27;47.87;;;6.90;99.90;;;;;;5009887;28;20450;-75
2021/05/02 04:49:33;;;;;;;63.77;46.77;;;7.00;99.90;;;;;;5010187;28;20446;-75
2021/05/02 04:51:59;;;;;;;58.53;44.40;;;7.00;99.90;;;;;;5009837;28;20502;-75
2021/05/02 04:54:26;;;;;;;60.47;44.40;;;7.00;99.90;;;;;;5009632;28;20498;-75
2021/05/02 04:56:52;;;;;;;61.60;44.07;;;7.10;99.90;;;;;;5009974;28;20447;-75
2021/05/02 04:59:18;;;;;;;58.13;45.70;;;7.10;99.90;;;;;;5010074;28;20456;-75
2021/05/02 05:01:45;;;;;;;61.60;47.60;;;7.10;99.90;;;;;;5009751;28;20552;-75
2021/05/02 05:04:13;;;;;;;60.83;45.63;;;7.10;99.90;;;;;;5009625;28;20544;-75
2021/05/02 05:06:40;;;;;;;56.67;43.50;;;7.20;99.90;;;;;;5009851;28;20588;-75
2021/05/02 05:09:06;;;;;;;61.17;46.20;;;7.20;99.90;;;;;;5009980;28;20453;-74
2021/05/02 05:11:33;;;;;;;58.33;45.90;;;7.30;99.90;;;;;;5009945;28;20450;-75
2021/05/02 05:14:00;;;;;;;58.07;46.70;;;7.30;99.90;;;;;;5009329;28;20510;-74
2021/05/02 05:16:26;;;;;;;56.13;44.97;;;7.30;99.90;;;;;;5009894;28;20884;-75
2021/05/02 05:18:53;;;;;;;55.90;44.33;;;7.30;99.90;;;;;;5009922;28;20457;-74
2021/05/02 05:21:19;;;;;;;65.50;47.97;;;7.40;99.90;;;;;;5010195;28;20482;-75
2021/05/02 05:23:46;;;;;;;61.57;47.43;;;7.40;99.90;;;;;;5009914;28;20475;-75
2021/05/02 05:26:12;;;;;;;57.80;44.60;;;7.40;99.90;;;;;;5013252;28;20489;-75
2021/05/02 05:28:39;;;;;;;54.43;43.90;;;7.50;99.90;;;;;;5013722;28;20454;-75
2021/05/02 05:31:05;;;;;;;57.50;46.20;;;7.50;99.90;;;;;;5013995;28;20463;-76
2021/05/02 05:33:32;;;;;;;55.37;43.63;;;7.60;99.90;;;;;;5013692;28;20457;-75
2021/05/02 05:35:59;;;;;;;52.83;43.60;;;7.70;99.90;;;;;;5013170;28;20511;-74
2021/05/02 05:38:25;;;;;;;53.50;45.83;;;7.70;99.90;;;;;;5013748;28;20502;-74
2021/05/02 05:40:53;;;;;;;52.50;41.50;;;7.80;99.90;;;;;;5013653;28;20481;-74
2021/05/02 05:43:20;;;;;;;54.10;42.30;;;7.90;99.90;;;;;;5013274;28;20456;-75
2021/05/02 05:45:46;;;;;;;46.47;41.47;;;7.90;99.90;;;;;;5013039;28;21003;-75
2021/05/02 05:48:12;;;;;;;48.20;40.17;;;7.90;99.90;;;;;;5013417;28;20561;-76
2021/05/02 05:50:41;;;;;;;45.77;39.47;;;7.90;99.90;;;;;;5013171;28;20985;-75
2021/05/02 05:53:07;;;;;;;46.20;38.53;;;7.90;99.90;;;;;;5013154;28;20457;-75
2021/05/02 05:55:33;;;;;;;46.70;37.60;;;8.00;99.90;;;;;;5013049;28;20552;-76
2021/05/02 05:58:00;;;;;;;49.27;40.40;;;8.00;99.90;;;;;;5013237;28;20453;-75
2021/05/02 06:00:27;;;;;;;50.13;40.27;;;8.00;99.90;;;;;;5012989;28;20525;-75
2021/05/02 06:02:53;;;;;;;44.93;40.17;;;8.10;99.90;;;;;;5013058;28;20485;-75
2021/05/02 06:05:19;;;;;;;42.13;36.43;;;8.10;99.90;;;;;;5012219;28;20579;-75
2021/05/02 06:07:46;;;;;;;44.03;37.23;;;8.10;99.90;;;;;;5012506;28;20450;-75
2021/05/02 06:10:13;;;;;;;44.53;38.30;;;8.10;99.90;;;;;;5012528;28;20453;-75
2021/05/02 06:12:39;;;;;;;45.10;38.60;;;8.20;99.90;;;;;;5012393;28;20572;-75
2021/05/02 06:15:09;;;;;;;44.13;38.87;;;8.20;99.90;;;;;;5011916;28;20473;-75
2021/05/02 06:17:36;;;;;;;45.60;40.70;;;8.40;99.90;;;;;;5012479;28;20536;-75
2021/05/02 06:20:03;;;;;;;44.43;36.73;;;8.50;99.90;;;;;;5012392;28;20562;-75
2021/05/02 06:22:32;;;;;;;40.27;35.87;;;8.70;99.90;;;;;;5012440;28;20804;-75
2021/05/02 06:24:58;;;;;;;38.50;33.37;;;8.90;99.90;;;;;;5011667;28;21040;-75
2021/05/02 06:27:25;;;;;;;39.13;35.13;;;9.00;99.90;;;;;;5012081;28;20465;-75
2021/05/02 06:29:51;;;;;;;36.60;32.70;;;9.20;99.90;;;;;;5012138;28;20446;-75
2021/05/02 06:32:18;;;;;;;35.90;32.10;;;9.30;99.90;;;;;;5012358;28;20553;-75
2021/05/02 06:34:45;;;;;;;33.87;29.80;;;9.20;99.90;;;;;;5011767;28;20469;-75
2021/05/02 06:37:11;;;;;;;35.47;31.70;;;9.20;99.90;;;;;;5012023;28;20462;-75
2021/05/02 06:39:37;;;;;;;38.40;33.53;;;9.20;99.90;;;;;;5012038;28;20472;-75
2021/05/02 06:42:04;;;;;;;36.40;32.50;;;9.10;99.90;;;;;;5012217;28;20478;-75
2021/05/02 06:44:30;;;;;;;34.97;31.30;;;9.10;99.90;;;;;;5012564;28;20663;-74
2021/05/02 06:46:57;;;;;;;35.00;31.30;;;9.00;99.90;;;;;;5012685;28;20508;-75
2021/05/02 06:49:27;;;;;;;34.47;30.97;;;9.10;99.90;;;;;;5011904;28;20450;-75
2021/05/02 06:51:53;;;;;;;33.50;30.10;;;9.10;99.90;;;;;;5011940;28;20536;-75
2021/05/02 06:54:20;;;;;;;33.73;30.27;;;9.20;99.90;;;;;;5011539;28;20564;-75
2021/05/02 06:56:46;;;;;;;34.30;30.63;;;9.10;99.90;;;;;;5011973;28;20579;-75
2021/05/02 06:59:12;;;;;;;32.33;29.07;;;9.10;99.90;;;;;;5011786;28;20449;-75
2021/05/02 07:01:39;;;;;;;34.67;31.07;;;9.20;99.90;;;;;;5011985;28;20450;-75
2021/05/02 07:04:05;;;;;;;33.07;29.57;;;9.30;99.90;;;;;;5005125;28;20473;-74
2021/05/02 07:06:33;;;;;;;30.37;27.37;;;9.50;99.90;;;;;;5012352;28;21004;-74
2021/05/02 07:09:00;;;;;;;31.13;27.90;;;9.70;99.90;;;;;;5005498;28;20533;-75
2021/05/02 07:11:26;;;;;;;32.83;29.47;;;9.90;99.90;;;;;;5011529;28;20540;-75
2021/05/02 07:13:53;;;;;;;26.77;24.13;;;10.00;99.90;;;;;;5011438;28;20564;-75
2021/05/02 07:16:21;;;;;;;30.00;26.83;;;10.00;99.90;;;;;;5011459;28;21128;-74
2021/05/02 07:18:49;;;;;;;31.63;28.50;;;9.90;99.90;;;;;;5011348;28;20473;-74
2021/05/02 07:21:17;;;;;;;28.97;25.97;;;9.70;99.90;;;;;;5011356;28;21059;-74
2021/05/02 07:23:47;;;;;;;31.27;28.07;;;9.60;99.90;;;;;;5011567;28;20716;-74
2021/05/02 07:26:14;;;;;;;30.10;27.17;;;9.50;99.90;;;;;;5011129;28;20488;-74
2021/05/02 07:28:40;;;;;;;25.53;23.03;;;9.60;99.90;;;;;;5005043;28;20445;-74
2021/05/02 07:31:07;;;;;;;25.47;22.87;;;9.80;99.90;;;;;;5012298;28;20496;-75
2021/05/02 07:33:33;;;;;;;22.90;20.77;;;9.90;99.90;;;;;;5011133;28;20450;-75
2021/05/02 07:35:59;;;;;;;22.57;20.47;;;10.10;99.90;;;;;;5010728;28;20541;-75
2021/05/02 07:38:27;;;;;;;22.63;20.33;;;10.10;99.90;;;;;;5010977;28;20944;-75
2021/05/02 07:40:56;;;;;;;22.80;20.33;;;10.10;99.90;;;;;;5011025;28;21023;-75
2021/05/02 07:43:23;;;;;;;23.53;21.10;;;10.00;99.90;;;;;;5011151;28;21024;-75
2021/05/02 07:45:49;;;;;;;21.67;19.57;;;10.10;99.90;;;;;;5010781;28;20519;-75
2021/05/02 07:48:15;;;;;;;20.57;18.60;;;10.10;99.90;;;;;;5010587;28;20645;-75
2021/05/02 07:50:42;;;;;;;22.73;20.33;;;10.10;99.90;;;;;;5010920;28;20454;-75
2021/05/02 07:53:08;;;;;;;20.87;18.60;;;10.20;99.90;;;;;;5011194;28;20453;-74
2021/05/02 07:55:36;;;;;;;20.10;18.00;;;10.30;99.90;;;;;;5011543;28;20528;-75
2021/05/02 07:58:04;;;;;;;22.53;20.13;;;10.40;99.90;;;;;;5012306;28;20460;-75
2021/05/02 08:00:30;;;;;;;21.23;19.10;;;10.60;99.90;;;;;;5012311;28;21071;-75
2021/05/02 08:02:57;;;;;;;21.63;19.50;;;10.60;99.90;;;;;;5013317;28;20532;-74
2021/05/02 08:05:23;;;;;;;20.53;18.40;;;10.50;99.90;;;;;;5011195;28;20582;-75
2021/05/02 08:07:49;;;;;;;20.87;18.77;;;10.50;99.90;;;;;;5010372;28;20499;-72
2021/05/02 08:10:18;;;;;;;20.97;18.77;;;10.40;99.90;;;;;;5010482;28;20964;-74
2021/05/02 08:12:44;;;;;;;21.60;19.43;;;10.30;99.90;;;;;;5010210;28;20472;-74
2021/05/02 08:15:12;;;;;;;22.23;19.93;;;10.30;99.90;;;;;;5009138;28;20849;-74
2021/05/02 08:17:38;;;;;;;19.40;17.60;;;10.60;99.90;;;;;;5010157;28;20450;-74
2021/05/02 08:20:06;;;;;;;21.87;19.57;;;10.80;99.90;;;;;;5010921;28;20456;-72
2021/05/02 08:22:33;;;;;;;19.70;17.80;;;10.60;99.90;;;;;;5009742;28;20453;-75
2021/05/02 08:24:59;;;;;;;19.60;17.50;;;10.40;99.90;;;;;;5009805;28;20559;-72
2021/05/02 08:27:26;;;;;;;19.83;17.93;;;10.40;99.90;;;;;;5010248;28;20519;-73
2021/05/02 08:29:52;;;;;;;19.70;17.80;;;10.50;99.90;;;;;;5010064;28;20528;-73
2021/05/02 08:32:19;;;;;;;20.87;18.63;;;10.60;99.90;;;;;;5010401;28;20450;-73
2021/05/02 08:34:46;;;;;;;20.30;18.20;;;10.80;99.90;;;;;;5010068;28;20461;-71
2021/05/02 08:37:12;;;;;;;18.60;16.70;;;11.10;99.90;;;;;;5010152;28;20464;-73
2021/05/02 08:39:39;;;;;;;19.27;17.37;;;11.50;99.90;;;;;;5010191;28;20540;-72
2021/05/02 08:42:06;;;;;;;21.40;19.20;;;11.60;99.90;;;;;;5010102;28;20481;-73
2021/05/02 08:44:34;;;;;;;22.47;16.17;;;11.70;99.90;;;;;;5009693;28;20473;-72
2021/05/02 08:47:00;;;;;;;19.80;17.97;;;11.80;99.90;;;;;;5010480;28;20518;-74
2021/05/02 08:49:28;;;;;;;18.10;16.40;;;12.00;99.90;;;;;;5010652;28;20452;-72
2021/05/02 08:51:54;;;;;;;19.00;17.10;;;11.90;99.90;;;;;;5010480;28;20454;-72
2021/05/02 08:54:21;;;;;;;18.67;16.80;;;11.80;99.90;;;;;;5010223;28;20887;-73
2021/05/02 08:56:47;;;;;;;18.73;16.93;;;11.70;99.90;;;;;;5009820;28;20945;-76
2021/05/02 08:59:13;;;;;;;19.40;17.60;;;11.30;99.90;;;;;;5011591;28;20533;-72
2021/05/02 09:01:41;;;;;;;19.43;17.43;;;11.20;99.90;;;;;;5012073;28;20515;-74
2021/05/02 09:04:09;;;;;;;19.30;17.37;;;11.20;99.90;;;;;;5014241;28;20473;-72
2021/05/02 09:06:39;;;;;;;19.27;17.40;;;11.20;99.90;;;;;;5012604;28;20485;-71
2021/05/02 09:09:07;;;;;;;19.37;17.57;;;11.30;99.90;;;;;;5014403;28;20940;-74
2021/05/02 09:11:35;;;;;;;19.73;17.83;;;11.40;99.90;;;;;;5009346;28;20459;-74
2021/05/02 09:14:03;;;;;;;17.90;16.20;;;11.50;99.90;;;;;;5002744;28;20532;-70
2021/05/02 09:16:47;;;;;;;19.00;17.13;;;11.90;99.90;;;;;;5003635;28;21501;-72
2021/05/02 09:19:14;;;;;;;19.17;17.17;;;12.30;99.90;;;;;;5018148;28;20509;-76
2021/05/02 09:21:42;;;;;;;18.17;16.30;;;12.20;99.90;;;;;;5029346;28;20426;-74
2021/05/02 09:24:22;;;;;;;18.57;16.80;;;12.10;99.90;;;;;;5033636;28;20522;-75
2021/05/02 09:27:02;;;;;;;18.17;16.27;;;12.00;99.90;;;;;;5029429;28;20477;-75
2021/05/02 09:29:33;;;;;;;18.10;16.30;;;12.10;99.90;;;;;;5036204;28;20426;-73
2021/05/02 09:32:02;;;;;;;18.90;17.07;;;12.30;99.90;;;;;;5036774;28;20461;-74
2021/05/02 09:34:29;;;;;;;19.47;17.37;;;12.40;99.90;;;;;;5024589;28;20474;-75
2021/05/02 09:37:02;;;;;;;17.57;16.00;;;12.80;99.90;;;;;;5006163;28;20475;-76
2021/05/02 09:39:46;;;;;;;18.97;17.07;;;12.70;99.90;;;;;;5006722;28;20527;-76
2021/05/02 09:42:17;;;;;;;17.50;15.80;;;12.60;99.90;;;;;;5009407;28;20457;-76
2021/05/02 09:44:47;;;;;;;19.17;17.37;;;12.80;99.90;;;;;;5003450;28;20500;-76
2021/05/02 09:47:29;;;;;;;19.37;17.57;;;12.90;99.90;;;;;;5002718;28;20565;-76
2021/05/02 09:50:10;;;;;;;17.70;16.10;;;12.70;99.90;;;;;;5004353;28;21038;-76
2021/05/02 09:52:50;;;;;;;18.93;17.13;;;12.60;99.90;;;;;;5003957;28;20929;-77
2021/05/02 09:55:36;;;;;;;18.53;16.73;;;12.30;99.90;;;;;;5001896;28;20485;-77
2021/05/02 09:58:06;;;;;;;18.73;16.83;;;12.00;99.90;;;;;;5003616;28;20450;-76
2021/05/02 10:00:35;;;;;;;18.27;16.57;;;12.30;99.90;;;;;;5003880;28;20472;-77
2021/05/02 10:03:05;;;;;;;21.07;19.07;;;12.80;99.90;;;;;;5010053;28;20524;-78
2021/05/02 10:05:32;;;;;;;20.60;18.43;;;13.30;99.90;;;;;;5000241;28;20552;-77
2021/05/02 10:07:59;;;;;;;18.87;17.07;;;13.40;99.90;;;;;;5010007;28;20469;-77
2021/05/02 10:10:26;;;;;;;20.13;18.10;;;13.20;99.90;;;;;;5011464;28;20537;-77
2021/05/02 10:12:54;;;;;;;21.83;19.83;;;12.90;99.90;;;;;;5002738;28;20485;-75
2021/05/02 10:15:22;;;;;;;20.00;18.27;;;12.60;99.90;;;;;;5000379;28;20469;-76
2021/05/02 10:17:50;;;;;;;21.03;19.03;;;12.30;99.90;;;;;;5010343;28;21299;-76
2021/05/02 10:20:19;;;;;;;19.20;17.40;;;11.90;99.90;;;;;;5011866;28;20828;-75
2021/05/02 10:22:46;;;;;;;21.60;19.60;;;11.60;99.90;;;;;;5012300;28;20504;-76
2021/05/02 10:25:16;;;;;;;24.83;22.23;;;11.40;99.90;;;;;;5011795;28;20553;-76
2021/05/02 10:27:51;;;;;;;22.33;20.13;;;11.30;99.90;;;;;;5000771;28;20464;-76
2021/05/02 10:30:23;;;;;;;21.30;19.20;;;11.20;99.90;;;;;;5000687;28;21034;-76
2021/05/02 10:32:51;;;;;;;21.07;19.07;;;11.20;99.90;;;;;;5002273;28;20460;-76
2021/05/02 10:35:18;;;;;;;19.33;17.63;;;11.20;99.90;;;;;;5000788;28;20565;-75
2021/05/02 10:37:57;;;;;;;20.83;18.83;;;11.50;99.90;;;;;;5011045;28;20588;-76
2021/05/02 10:40:32;;;;;;;18.03;16.40;;;12.10;99.90;;;;;;5011470;28;20508;-75
2021/05/02 10:43:03;;;;;;;18.80;17.10;;;12.60;99.90;;;;;;5006050;28;20568;-77
2021/05/02 10:45:49;;;;;;;20.87;18.97;;;12.80;99.70;;;;;;5006316;28;20585;-76
2021/05/02 10:48:48;;;;;;;21.13;18.80;;;12.70;99.20;;;;;;5007980;28;20461;-77
2021/05/02 10:51:30;;;;;;;20.37;18.30;;;12.70;99.90;;;;;;5006156;28;20461;-75
2021/05/02 10:54:10;;;;;;;20.07;18.27;;;12.40;99.90;;;;;;5011387;28;20478;-76
2021/05/02 10:56:49;;;;;;;19.70;17.90;;;12.40;99.90;;;;;;5011777;28;20445;-76
2021/05/02 10:59:16;;;;;;;21.23;19.27;;;12.50;99.90;;;;;;5011390;28;20474;-75
2021/05/02 11:01:44;;;;;;;19.47;17.67;;;12.70;99.90;;;;;;5011043;28;20883;-75
2021/05/02 11:04:12;;;;;;;20.77;18.67;;;12.80;99.40;;;;;;4998134;28;20497;-75
2021/05/02 11:06:55;;;;;;;18.30;16.70;;;13.10;99.90;;;;;;5001459;28;20489;-76
2021/05/02 11:09:25;;;;;;;18.17;16.27;;;13.60;98.40;;;;;;5002998;28;20468;-75
2021/05/02 11:11:54;;;;;;;22.47;20.20;;;13.70;98.40;;;;;;5010887;28;20529;-75
2021/05/02 11:14:38;;;;;;;17.53;16.10;;;13.90;98.40;;;;;;5009781;28;21080;-74
2021/05/02 11:17:30;;;;;;;17.53;15.83;;;14.00;98.10;;;;;;5011699;28;20577;-76
2021/05/02 11:19:58;;;;;;;17.13;15.73;;;13.70;96.20;;;;;;5006467;28;20442;-77
2021/05/02 11:22:26;;;;;;;16.13;14.63;;;13.50;96.80;;;;;;5011159;28;20446;-76
2021/05/02 11:25:12;;;;;;;17.20;15.70;;;13.20;97.20;;;;;;5011537;28;20468;-74
2021/05/02 11:30:36;;;;;;;17.30;15.70;;;12.90;99.10;;;;;;5009017;28;20442;-74
2021/05/02 11:33:21;;;;;;;19.73;18.03;;;12.90;98.60;;;;;;5011465;28;20453;-75
2021/05/02 11:35:57;;;;;;;20.83;18.80;;;12.60;98.30;;;;;;5010954;28;20462;-75
2021/05/02 11:38:44;;;;;;;21.47;19.33;;;12.50;99.90;;;;;;5011121;28;20453;-74
2021/05/02 11:41:11;;;;;;;21.77;19.70;;;11.80;99.90;;;;;;5002982;28;20458;-75
2021/05/02 11:43:40;;;;;;;21.00;19.20;;;11.50;99.90;;;;;;5010792;28;20569;-74
2021/05/02 11:46:16;;;;;;;19.63;17.93;;;11.50;99.90;;;;;;5004767;28;20510;-75
2021/05/02 11:48:43;;;;;;;16.80;15.27;;;11.80;99.90;;;;;;5010903;28;20449;-74
2021/05/02 11:51:19;;;;;;;14.73;13.30;;;12.80;99.90;;;;;;5010929;28;20465;-75
2021/05/02 11:53:50;;;;;;;15.17;13.80;;;13.50;99.90;;;;;;5008565;28;20814;-74
2021/05/02 11:56:19;;;;;;;14.67;13.37;;;14.00;99.90;;;;;;5002856;28;20454;-76
2021/05/02 11:58:47;;;;;;;15.23;13.93;;;14.30;99.60;;;;;;5010865;28;20489;-75
2021/05/02 12:01:19;;;;;;;9.37;8.47;;;14.60;99.90;;;;;;5010770;28;20527;-75
2021/05/02 12:03:47;;;;;;;10.30;9.30;;;15.20;97.40;;;;;;5010803;28;20918;-75
2021/05/02 12:06:32;;;;;;;13.17;12.07;;;15.20;96.80;;;;;;5010729;28;20925;-74
2021/05/02 12:09:01;;;;;;;7.53;6.83;;;15.30;97.90;;;;;;5011373;28;20457;-77
2021/05/02 12:11:28;;;;;;;8.40;7.60;;;15.30;95.60;;;;;;5001373;28;20541;-77
2021/05/02 12:13:57;;;;;;;7.80;7.13;;;15.60;94.60;;;;;;5010146;28;20469;-75
2021/05/02 12:16:25;;;;;;;8.60;7.77;;;15.80;94.60;;;;;;5001768;28;20455;-77
2021/05/02 12:18:55;;;;;;;8.63;7.83;;;16.20;93.90;;;;;;5002730;28;20564;-76
2021/05/02 12:21:26;;;;;;;9.87;9.03;;;16.10;93.40;;;;;;5004761;28;20442;-76
2021/05/02 12:23:53;;;;;;;12.20;11.20;;;15.80;93.50;;;;;;5010157;28;20553;-76
2021/05/02 12:26:20;;;;;;;11.73;10.73;;;15.30;94.60;;;;;;5009767;28;20521;-78
2021/05/02 12:28:49;;;;;;;11.67;10.67;;;15.00;94.00;;;;;;5010792;28;20536;-75
2021/05/02 12:31:17;;;;;;;14.20;12.83;;;14.70;94.70;;;;;;5011468;28;20474;-76
2021/05/02 12:33:44;;;;;;;12.77;11.57;;;14.00;96.20;;;;;;5009939;28;20515;-75
2021/05/02 12:36:13;;;;;;;14.67;13.40;;;13.50;96.40;;;;;;5009530;28;20486;-75
2021/05/02 12:38:41;;;;;;;13.23;11.93;;;13.20;97.30;;;;;;5005795;28;20512;-77
2021/05/02 12:41:17;;;;;;;11.57;10.57;;;12.90;98.20;;;;;;5009312;28;20533;-76
2021/05/02 12:43:48;;;;;;;11.03;10.03;;;12.70;99.40;;;;;;5009847;28;20501;-77